Terminal Aerodrome Forecast
Issued by NWS

Home | Current Version | Previous Version | Graphics & Text | Print | Product List | Glossary On
Versions: 1 2 3 4 5 6 7 8 9 10 11 12 13 14 15 16
591
FTUS43 KICT 040108 AAA
TAFHUT
TAF AMD
KHUT 040108Z 0401/0424 11004KT 5SM -RA OVC004
     FM041400 31005KT P6SM SCT110=

USA.gov is the U.S. government's official web portal to all federal, state and local government web resources and services.